This is the latest recevied weather packets stored in our database for station/object KJ6APE. If no packets are shown the sender has not sent any weather packets the latest 10 day(s).
| Time | Temp. | Humidity | Pressure | Rain* | Wind** | Luminosity | Snow |
|---|---|---|---|---|---|---|---|
| 1778198423 | 27.78° C | 43% | 1015.8 hPa | 0 mm | - | 588 W/m² | - |
| 1778198119 | 27.78° C | 44% | 1015.6 hPa | 0 mm | - | 608 W/m² | - |
| 1778197817 | 27.78° C | 43% | 1015.7 hPa | 0 mm | - | 625 W/m² | - |
| 1778197513 | 27.78° C | 42% | 1015.7 hPa | 0 mm | - | 644 W/m² | - |
| 1778197210 | 28.33° C | 40% | 1015.5 hPa | 0 mm | - | 662 W/m² | - |
| 1778196906 | 28.89° C | 40% | 1015.5 hPa | 0 mm | - | 680 W/m² | - |
| 1778196605 | 28.89° C | 42% | 1015.5 hPa | 0 mm | - | 696 W/m² | - |
| 1778196301 | 28.89° C | 40% | 1015.6 hPa | 0 mm | - | 712 W/m² | - |
| 1778195999 | 28.89° C | 40% | 1015.6 hPa | 0 mm | - | 728 W/m² | - |
| 1778195694 | 28.89° C | 41% | 1015.8 hPa | 0 mm | - | 744 W/m² | - |
| 1778195392 | 30° C | 39% | 1015.4 hPa | 0 mm | - | 758 W/m² | - |
| 1778195089 | 30° C | 38% | 1015.6 hPa | 0 mm | - | 773 W/m² | - |
| 1778194784 | 28.89° C | 44% | 1015.8 hPa | 0 mm | - | 786 W/m² | - |
| 1778194480 | 28.33° C | 43% | 1015.8 hPa | 0 mm | - | 802 W/m² | - |
| 1778194177 | 28.33° C | 43% | 1015.9 hPa | 0 mm | - | 813 W/m² | - |
| 1778193872 | 28.33° C | 45% | 1015.9 hPa | 0 mm | - | 828 W/m² | - |
| 1778193570 | 27.78° C | 46% | 1016 hPa | 0 mm | - | 841 W/m² | - |
| 1778193265 | 27.22° C | 45% | 1016.1 hPa | 0 mm | - | 852 W/m² | - |
| 1778192962 | 27.78° C | 45% | 1016.2 hPa | 0 mm | - | 864 W/m² | - |
| 1778192659 | 27.78° C | 47% | 1016.3 hPa | 0 mm | - | 876 W/m² | - |
| 1778192356 | 27.78° C | 45% | 1016.3 hPa | 0 mm | - | 889 W/m² | - |
| 1778192053 | 27.22° C | 48% | 1016.4 hPa | 0 mm | - | 901 W/m² | - |
| 1778191748 | 26.67° C | 47% | 1016.4 hPa | 0 mm | - | 911 W/m² | - |
| 1778191447 | 26.67° C | 49% | 1016.5 hPa | 0 mm | - | 922 W/m² | - |
| 1778191143 | 26.67° C | 47% | 1016.5 hPa | 0 mm | - | 932 W/m² | - |
* Rain latest hour (hover to see other rain measurements)
** Current wind speed in m/s (hover to see current wind gust speed)